sensor_id;sensor_type;location;lat;lon;timestamp;pressure;altitude;pressure_sealevel;temperature;humidity
29063;BME280;71206;48.564;-123.458;2024-03-08T00:00:08;101687.86;;;11.96;36.98
29063;BME280;71206;48.564;-123.458;2024-03-08T00:02:29;101686.63;;;12.25;36.10
29063;BME280;71206;48.564;-123.458;2024-03-08T00:04:53;101690.13;;;11.62;36.54
29063;BME280;71206;48.564;-123.458;2024-03-08T00:07:18;101683.63;;;11.86;35.09
29063;BME280;71206;48.564;-123.458;2024-03-08T00:09:44;101681.68;;;11.44;35.84
29063;BME280;71206;48.564;-123.458;2024-03-08T00:12:09;101680.99;;;12.08;35.89
29063;BME280;71206;48.564;-123.458;2024-03-08T00:14:37;101685.05;;;10.84;35.81
29063;BME280;71206;48.564;-123.458;2024-03-08T00:17:00;101685.14;;;11.41;36.45
29063;BME280;71206;48.564;-123.458;2024-03-08T00:19:25;101685.28;;;10.65;35.37
29063;BME280;71206;48.564;-123.458;2024-03-08T00:21:54;101688.98;;;10.40;36.40
29063;BME280;71206;48.564;-123.458;2024-03-08T00:24:15;101692.56;;;9.77;37.71
29063;BME280;71206;48.564;-123.458;2024-03-08T00:26:41;101684.20;;;10.46;36.74
29063;BME280;71206;48.564;-123.458;2024-03-08T00:29:06;101680.17;;;11.42;36.43
29063;BME280;71206;48.564;-123.458;2024-03-08T00:31:32;101681.08;;;11.22;36.61
29063;BME280;71206;48.564;-123.458;2024-03-08T00:34:02;101693.27;;;10.37;38.92
29063;BME280;71206;48.564;-123.458;2024-03-08T00:36:22;101680.90;;;10.86;38.91
29063;BME280;71206;48.564;-123.458;2024-03-08T00:38:49;101680.79;;;11.99;37.14
29063;BME280;71206;48.564;-123.458;2024-03-08T00:41:13;101681.32;;;11.85;37.25
29063;BME280;71206;48.564;-123.458;2024-03-08T00:43:39;101680.20;;;11.59;36.62
29063;BME280;71206;48.564;-123.458;2024-03-08T00:46:03;101678.49;;;10.79;37.91
29063;BME280;71206;48.564;-123.458;2024-03-08T00:48:29;101678.61;;;11.57;37.29
29063;BME280;71206;48.564;-123.458;2024-03-08T00:50:54;101686.41;;;10.49;38.33
29063;BME280;71206;48.564;-123.458;2024-03-08T00:53:19;101691.62;;;8.87;39.94
29063;BME280;71206;48.564;-123.458;2024-03-08T00:55:45;101680.69;;;10.82;37.95
29063;BME280;71206;48.564;-123.458;2024-03-08T00:58:10;101676.73;;;12.04;37.40
29063;BME280;71206;48.564;-123.458;2024-03-08T01:00:35;101673.60;;;12.08;36.84
29063;BME280;71206;48.564;-123.458;2024-03-08T01:03:01;101675.39;;;12.87;36.93
29063;BME280;71206;48.564;-123.458;2024-03-08T01:05:26;101673.82;;;12.46;37.04
29063;BME280;71206;48.564;-123.458;2024-03-08T01:07:52;101673.52;;;12.78;36.71
29063;BME280;71206;48.564;-123.458;2024-03-08T01:10:16;101672.66;;;12.29;36.92
29063;BME280;71206;48.564;-123.458;2024-03-08T01:12:42;101671.62;;;12.45;37.45
29063;BME280;71206;48.564;-123.458;2024-03-08T01:15:08;101669.97;;;12.43;37.45
29063;BME280;71206;48.564;-123.458;2024-03-08T01:17:36;101675.47;;;12.29;37.71
29063;BME280;71206;48.564;-123.458;2024-03-08T01:19:57;101674.96;;;12.35;37.90
29063;BME280;71206;48.564;-123.458;2024-03-08T01:22:23;101677.32;;;12.63;38.15
29063;BME280;71206;48.564;-123.458;2024-03-08T01:24:49;101682.01;;;12.68;38.45
29063;BME280;71206;48.564;-123.458;2024-03-08T01:27:16;101681.52;;;12.17;38.88
29063;BME280;71206;48.564;-123.458;2024-03-08T01:29:40;101683.32;;;12.04;38.63
29063;BME280;71206;48.564;-123.458;2024-03-08T01:32:05;101681.77;;;11.81;39.62
29063;BME280;71206;48.564;-123.458;2024-03-08T01:34:33;101678.46;;;12.01;39.85
29063;BME280;71206;48.564;-123.458;2024-03-08T01:36:58;101681.68;;;12.15;40.63
29063;BME280;71206;48.564;-123.458;2024-03-08T01:39:30;101678.60;;;12.09;40.13
29063;BME280;71206;48.564;-123.458;2024-03-08T01:41:48;101677.89;;;12.03;40.24
29063;BME280;71206;48.564;-123.458;2024-03-08T01:44:13;101678.44;;;11.55;41.42
29063;BME280;71206;48.564;-123.458;2024-03-08T01:46:38;101675.51;;;11.60;41.49
29063;BME280;71206;48.564;-123.458;2024-03-08T01:49:04;101671.48;;;11.66;40.83
29063;BME280;71206;48.564;-123.458;2024-03-08T01:51:30;101673.72;;;11.86;40.40
29063;BME280;71206;48.564;-123.458;2024-03-08T01:53:56;101673.08;;;11.70;40.91
29063;BME280;71206;48.564;-123.458;2024-03-08T01:56:20;101672.09;;;11.60;41.02
29063;BME280;71206;48.564;-123.458;2024-03-08T01:58:45;101675.13;;;11.43;41.14
29063;BME280;71206;48.564;-123.458;2024-03-08T02:01:12;101680.31;;;11.81;41.24
29063;BME280;71206;48.564;-123.458;2024-03-08T02:03:36;101692.81;;;10.83;45.71
29063;BME280;71206;48.564;-123.458;2024-03-08T02:06:02;101697.00;;;11.07;45.93
29063;BME280;71206;48.564;-123.458;2024-03-08T02:08:27;101702.90;;;10.61;44.07
29063;BME280;71206;48.564;-123.458;2024-03-08T02:10:52;101702.86;;;10.44;44.28
29063;BME280;71206;48.564;-123.458;2024-03-08T02:13:17;101705.12;;;10.25;44.45
29063;BME280;71206;48.564;-123.458;2024-03-08T02:15:52;101729.26;;;3.47;100.00
29063;BME280;71206;48.564;-123.458;2024-03-08T02:18:31;101764.57;;;3.99;100.00
29063;BME280;71206;48.564;-123.458;2024-03-08T02:22:55;101762.97;;;3.57;100.00
